createdAt,value
2023-04-26T00:00:29.415Z,0.46
2023-04-26T00:01:46.402Z,0.45
2023-04-26T00:03:03.472Z,0.45
2023-04-26T00:04:20.757Z,0.52
2023-04-26T00:05:37.403Z,0.56
2023-04-26T00:06:54.390Z,0.5
2023-04-26T00:08:11.407Z,0.44
2023-04-26T00:09:28.407Z,0.7
2023-04-26T00:10:45.461Z,0.36
2023-04-26T00:12:02.415Z,0.34
2023-04-26T00:13:19.380Z,0.43
2023-04-26T00:14:36.476Z,0.42
2023-04-26T00:15:53.560Z,0.36
2023-04-26T00:17:10.447Z,0.46
2023-04-26T00:18:27.436Z,0.4
2023-04-26T00:19:44.446Z,0.52
2023-04-26T00:21:01.417Z,0.34
2023-04-26T00:22:18.497Z,0.25
2023-04-26T00:23:35.415Z,0.3
2023-04-26T00:24:52.408Z,0.4
2023-04-26T00:26:09.442Z,0.36
2023-04-26T00:27:26.509Z,0.42
2023-04-26T00:28:43.419Z,0.51
2023-04-26T00:30:00.424Z,0.44
2023-04-26T00:31:17.489Z,0.56
2023-04-26T00:32:34.485Z,0.25
2023-04-26T00:33:51.478Z,0.39
2023-04-26T00:35:08.426Z,0.46
2023-04-26T00:36:25.406Z,0.44
2023-04-26T00:37:42.433Z,0.38
2023-04-26T00:38:59.724Z,0.32
2023-04-26T00:40:16.418Z,0.32
2023-04-26T00:41:33.456Z,0.55
2023-04-26T00:42:50.434Z,0.4
2023-04-26T00:44:07.497Z,0.37
2023-04-26T00:45:24.437Z,0.66
2023-04-26T00:46:41.507Z,0.38
2023-04-26T00:47:58.496Z,0.6
2023-04-26T00:49:15.524Z,0.41
2023-04-26T00:50:32.579Z,0.38
2023-04-26T00:51:49.460Z,0.48
2023-04-26T00:53:06.447Z,0.44
2023-04-26T00:54:23.782Z,0.44
2023-04-26T00:55:40.578Z,0.57
2023-04-26T00:56:58.247Z,0.32
2023-04-26T00:58:15.923Z,0.6
2023-04-26T00:59:32.806Z,0.5
2023-04-26T01:00:49.844Z,0.59
2023-04-26T01:02:06.503Z,0.53
2023-04-26T01:03:24.182Z,0.49
2023-04-26T01:04:40.494Z,0.49
2023-04-26T01:05:57.476Z,0.4
2023-04-26T01:07:14.539Z,0.63
2023-04-26T01:08:31.458Z,0.34
2023-04-26T01:09:48.501Z,0.49
2023-04-26T01:11:05.510Z,0.6
2023-04-26T01:12:22.510Z,0.71
2023-04-26T01:13:39.512Z,0.66
2023-04-26T01:14:56.538Z,0.59
2023-04-26T01:16:13.490Z,0.45
2023-04-26T01:17:30.537Z,0.49
2023-04-26T01:18:47.480Z,0.47
2023-04-26T01:20:04.576Z,0.41
2023-04-26T01:21:21.510Z,0.49
2023-04-26T01:22:38.582Z,0.59
2023-04-26T01:23:55.498Z,0.47
2023-04-26T01:25:12.535Z,0.34
2023-04-26T01:26:29.501Z,0.51
2023-04-26T01:27:46.491Z,0.53
2023-04-26T01:29:03.549Z,0.3
2023-04-26T01:30:20.555Z,0.36
2023-04-26T01:31:37.749Z,0.42
2023-04-26T01:32:54.634Z,0.4
2023-04-26T01:34:11.545Z,0.3
2023-04-26T01:35:28.550Z,0.38
2023-04-26T01:36:45.583Z,0.36
2023-04-26T01:38:02.575Z,0.32
2023-04-26T01:39:19.542Z,0.38
2023-04-26T01:40:36.508Z,0.46
2023-04-26T01:41:53.606Z,0.52
2023-04-26T01:43:10.816Z,0.49
2023-04-26T01:44:27.523Z,0.54
2023-04-26T01:45:44.561Z,0.55
2023-04-26T01:47:01.589Z,0.47
2023-04-26T01:48:18.564Z,0.53
2023-04-26T01:49:35.592Z,0.62
2023-04-26T01:50:52.533Z,0.78
2023-04-26T01:52:09.544Z,0.89
2023-04-26T01:53:26.562Z,0.56
2023-04-26T01:54:43.523Z,0.4
2023-04-26T01:56:00.546Z,0.62
2023-04-26T01:57:17.586Z,0.53
2023-04-26T01:58:34.566Z,0.67
2023-04-26T01:59:51.531Z,0.97
2023-04-26T02:01:08.581Z,1.4
2023-04-26T02:02:25.559Z,1.1
2023-04-26T02:03:42.656Z,0.78
2023-04-26T02:04:59.645Z,0.76
2023-04-26T02:06:16.553Z,0.87
2023-04-26T02:07:33.549Z,0.85
2023-04-26T02:08:50.838Z,0.92
2023-04-26T02:10:07.537Z,0.53
2023-04-26T02:11:24.624Z,0.62
2023-04-26T02:12:41.586Z,0.62
2023-04-26T02:13:58.605Z,0.94
2023-04-26T02:15:15.551Z,0.67
2023-04-26T02:16:32.724Z,0.36
2023-04-26T02:17:49.655Z,0.58
2023-04-26T02:19:06.633Z,0.59
2023-04-26T02:20:23.554Z,0.81
2023-04-26T02:21:40.586Z,0.83
2023-04-26T02:22:57.579Z,0.62
2023-04-26T02:24:14.609Z,0.59
2023-04-26T02:25:31.656Z,0.59
2023-04-26T02:26:48.618Z,0.46
2023-04-26T02:28:05.573Z,1
2023-04-26T02:29:29.694Z,0.85
2023-04-26T02:30:39.620Z,0.65
2023-04-26T02:31:56.760Z,0.85
2023-04-26T02:33:13.595Z,0.62
2023-04-26T02:34:30.599Z,0.94
2023-04-26T02:35:47.657Z,0.38
2023-04-26T02:37:04.614Z,0.98
2023-04-26T02:38:21.640Z,0.85
2023-04-26T02:39:38.599Z,0.52
2023-04-26T02:40:55.609Z,0.45
2023-04-26T02:42:12.685Z,0.71
2023-04-26T02:43:29.630Z,0.43
2023-04-26T02:44:46.592Z,0.84
2023-04-26T02:46:03.618Z,0.7
2023-04-26T02:47:20.600Z,0.82
2023-04-26T02:48:37.641Z,0.66
2023-04-26T02:49:54.614Z,0.89
2023-04-26T02:51:11.600Z,0.69
2023-04-26T02:52:28.621Z,0.81
2023-04-26T02:53:45.912Z,0.99
2023-04-26T02:55:02.632Z,0.64
2023-04-26T02:56:19.602Z,0.88
2023-04-26T02:57:36.618Z,0.92
2023-04-26T02:58:53.849Z,0.95
2023-04-26T03:00:10.621Z,0.76
2023-04-26T03:01:27.645Z,0.72
2023-04-26T03:02:44.750Z,0.59
2023-04-26T03:04:01.778Z,0.95
2023-04-26T03:05:18.726Z,0.38
2023-04-26T03:06:35.617Z,0.76
2023-04-26T03:07:52.635Z,0.53
2023-04-26T03:09:09.952Z,0.37
2023-04-26T03:10:26.627Z,0.5
2023-04-26T03:11:43.652Z,0.66
2023-04-26T03:13:00.658Z,0.81
2023-04-26T03:14:17.781Z,0.82
2023-04-26T03:15:34.658Z,0.91
2023-04-26T03:16:51.714Z,0.81
2023-04-26T03:18:08.757Z,0.75
2023-04-26T03:19:25.705Z,1.03
2023-04-26T03:20:42.701Z,0.8
2023-04-26T03:21:59.653Z,0.79
2023-04-26T03:23:16.673Z,0.66
2023-04-26T03:24:33.633Z,0.68
2023-04-26T03:25:50.731Z,1.1
2023-04-26T03:27:07.766Z,0.55
2023-04-26T03:28:24.793Z,0.5
2023-04-26T03:29:43.491Z,0.76
2023-04-26T03:30:58.705Z,0.33
2023-04-26T03:32:15.885Z,0.5
2023-04-26T03:33:32.683Z,0.38
2023-04-26T03:34:49.788Z,0.87
2023-04-26T03:36:06.861Z,0.83
2023-04-26T03:37:23.692Z,0.98
2023-04-26T03:38:40.662Z,1.06
2023-04-26T03:39:57.704Z,1.09
2023-04-26T03:41:14.908Z,1.16
2023-04-26T03:42:31.701Z,1.14
2023-04-26T03:43:48.690Z,0.76
2023-04-26T03:45:05.694Z,0.94
2023-04-26T03:46:22.785Z,0.82
2023-04-26T03:47:39.816Z,0.51
2023-04-26T03:48:56.696Z,0.91
2023-04-26T03:50:13.694Z,0.75
2023-04-26T03:51:30.843Z,0.86
2023-04-26T03:52:48.071Z,0.84
2023-04-26T03:54:04.683Z,1.69
2023-04-26T03:55:21.704Z,0.68
2023-04-26T03:56:38.717Z,0.65
2023-04-26T03:57:55.725Z,1.12
2023-04-26T03:59:12.738Z,1.17
2023-04-26T04:00:29.726Z,1.17
2023-04-26T04:01:46.788Z,1
2023-04-26T04:03:03.974Z,0.91
2023-04-26T04:04:21.013Z,0.61
2023-04-26T04:05:37.735Z,0.84
2023-04-26T04:06:54.722Z,0.64
2023-04-26T04:08:11.777Z,1.1
2023-04-26T04:09:28.704Z,0.75
2023-04-26T04:10:45.703Z,0.77
2023-04-26T04:12:03.183Z,0.53
2023-04-26T04:13:19.772Z,0.78
2023-04-26T04:14:36.740Z,1.37
2023-04-26T04:15:53.794Z,0.73
2023-04-26T04:17:10.742Z,1.53
2023-04-26T04:18:27.784Z,0.85
2023-04-26T04:19:44.740Z,0.78
2023-04-26T04:21:01.730Z,0.68
2023-04-26T04:22:18.751Z,0.66
2023-04-26T04:23:35.806Z,1.04
2023-04-26T04:24:52.780Z,0.75
2023-04-26T04:26:09.735Z,0.76
2023-04-26T04:27:26.731Z,1.04
2023-04-26T04:28:43.812Z,1.12
2023-04-26T04:30:00.727Z,1.06
2023-04-26T04:31:17.834Z,1.09
2023-04-26T04:32:34.754Z,0.81
2023-04-26T04:33:51.812Z,0.43
2023-04-26T04:35:08.754Z,1.68
2023-04-26T04:36:25.745Z,1.09
2023-04-26T04:37:42.782Z,0.56
2023-04-26T04:38:59.775Z,1.16
2023-04-26T04:40:16.763Z,1.14
2023-04-26T04:41:33.773Z,1.34
2023-04-26T04:42:50.801Z,2.23
2023-04-26T04:44:07.748Z,1.25
2023-04-26T04:45:25.739Z,1.26
2023-04-26T04:46:43.865Z,0.94
2023-04-26T04:48:02.644Z,0.84
2023-04-26T04:49:21.031Z,1.54
2023-04-26T04:50:39.348Z,1.58
2023-04-26T04:51:56.888Z,1.37
2023-04-26T04:53:14.698Z,1.15
2023-04-26T04:54:31.793Z,1.68
2023-04-26T04:55:48.778Z,1.14
2023-04-26T04:57:05.836Z,1.63
2023-04-26T04:58:23.456Z,1.08
2023-04-26T04:59:40.862Z,0.97
2023-04-26T05:00:57.787Z,0.99
2023-04-26T05:02:17.528Z,1.55
2023-04-26T05:03:34.068Z,1.09
2023-04-26T05:04:51.041Z,1.29
2023-04-26T05:06:07.778Z,1.15
2023-04-26T05:07:25.588Z,1.96
2023-04-26T05:08:41.870Z,1.94
2023-04-26T05:09:58.780Z,1.33
2023-04-26T05:11:15.777Z,1.39
2023-04-26T05:12:32.824Z,1.23
2023-04-26T05:13:51.623Z,0.88
2023-04-26T05:15:06.814Z,0.64
2023-04-26T05:16:23.823Z,2.11
2023-04-26T05:17:40.823Z,1.99
2023-04-26T05:18:57.816Z,0.91
2023-04-26T05:20:14.835Z,1.99
2023-04-26T05:21:31.799Z,1.62
2023-04-26T05:22:48.855Z,1.39
2023-04-26T05:24:06.196Z,1.44
2023-04-26T05:25:23.000Z,1.23
2023-04-26T05:26:39.828Z,2.44
2023-04-26T05:27:56.880Z,1.68
2023-04-26T05:29:13.801Z,2.24
2023-04-26T05:30:30.838Z,1.22
2023-04-26T05:31:47.808Z,1.15
2023-04-26T05:33:04.981Z,1.79
2023-04-26T05:34:21.845Z,3.08
2023-04-26T05:35:38.920Z,1.12
2023-04-26T05:36:55.924Z,2.21
2023-04-26T05:38:12.836Z,1.66
2023-04-26T05:39:29.827Z,1.41
2023-04-26T05:40:46.873Z,1.51
2023-04-26T05:42:03.838Z,1.53
2023-04-26T05:43:20.845Z,2.32
2023-04-26T05:44:39.917Z,1.67
2023-04-26T05:45:56.924Z,1.54
2023-04-26T05:47:13.829Z,1.78
2023-04-26T05:48:30.836Z,2.25
2023-04-26T05:49:47.852Z,2.71
2023-04-26T05:51:04.877Z,2.4
2023-04-26T05:52:21.864Z,1.8
2023-04-26T05:53:38.876Z,1.91
2023-04-26T05:54:55.853Z,2.71
2023-04-26T05:56:12.914Z,2.4
2023-04-26T05:57:29.877Z,3.04
2023-04-26T05:58:46.845Z,2.17
2023-04-26T06:00:03.878Z,3.43
2023-04-26T06:01:20.900Z,2.4
2023-04-26T06:02:38.009Z,1.45
2023-04-26T06:03:57.131Z,2.04
2023-04-26T06:05:11.937Z,2.6
2023-04-26T06:06:28.927Z,1.24
2023-04-26T06:07:45.883Z,2.01
2023-04-26T06:09:02.860Z,1.25
2023-04-26T06:10:19.904Z,3.6
2023-04-26T06:11:36.894Z,1.7
2023-04-26T06:12:53.850Z,2.25
2023-04-26T06:14:19.987Z,2.33
2023-04-26T06:15:27.891Z,1.53
2023-04-26T06:16:44.904Z,1.88
2023-04-26T06:18:01.917Z,2.06
2023-04-26T06:19:19.031Z,2.93
2023-04-26T06:20:36.193Z,1.71
2023-04-26T06:21:53.302Z,2.01
2023-04-26T06:23:09.946Z,2.78
2023-04-26T06:24:26.890Z,3.83
2023-04-26T06:25:43.962Z,2.81
2023-04-26T06:27:00.940Z,2.57
2023-04-26T06:28:17.883Z,2.44
2023-04-26T06:29:34.917Z,2.22
2023-04-26T06:30:51.927Z,1.95
2023-04-26T06:32:08.928Z,1.1
2023-04-26T06:33:25.913Z,0.69
2023-04-26T06:34:42.899Z,2.33
2023-04-26T06:35:59.904Z,3.06
2023-04-26T06:37:16.935Z,2.2
2023-04-26T06:38:33.922Z,2.03
2023-04-26T06:39:50.892Z,2.28
2023-04-26T06:41:08.035Z,2.66
2023-04-26T06:42:24.964Z,3.47
2023-04-26T06:43:41.920Z,2.66
2023-04-26T06:44:58.917Z,2.33
2023-04-26T06:46:15.963Z,2.11
2023-04-26T06:47:33.071Z,2.71
2023-04-26T06:48:49.957Z,2.81
2023-04-26T06:50:06.965Z,1.39
2023-04-26T06:51:23.911Z,2.44
2023-04-26T06:52:40.978Z,1.68
2023-04-26T06:53:57.946Z,1.52
2023-04-26T06:55:15.021Z,1.25
2023-04-26T06:56:32.023Z,1.76
2023-04-26T06:57:48.975Z,1.18
2023-04-26T06:59:05.949Z,3.1
2023-04-26T07:00:22.985Z,2.16
2023-04-26T07:01:39.972Z,1.27
2023-04-26T07:02:57.343Z,2.36
2023-04-26T07:04:13.995Z,1.62
2023-04-26T07:05:30.969Z,1.61
2023-04-26T07:06:48.312Z,2.27
2023-04-26T07:08:05.014Z,2.61
2023-04-26T07:09:22.004Z,1.75
2023-04-26T07:10:38.960Z,0.92
2023-04-26T07:11:56.131Z,2.35
2023-04-26T07:13:12.976Z,3.38
2023-04-26T07:14:29.964Z,3.2
2023-04-26T07:15:47.078Z,3.21
2023-04-26T07:17:04.026Z,3.73
2023-04-26T07:18:20.976Z,2.9
2023-04-26T07:19:38.031Z,3.49
2023-04-26T07:20:54.965Z,2.35
2023-04-26T07:22:11.993Z,2.5
2023-04-26T07:23:28.995Z,3
2023-04-26T07:24:46.519Z,1.12
2023-04-26T07:26:03.014Z,3.07
2023-04-26T07:27:20.028Z,2.47
2023-04-26T07:28:36.992Z,6.1
2023-04-26T07:29:53.998Z,2.34
2023-04-26T07:31:11.142Z,2.71
2023-04-26T07:32:28.141Z,2.58
2023-04-26T07:33:45.019Z,4.17
2023-04-26T07:35:02.042Z,2.75
2023-04-26T07:36:19.029Z,4.32
2023-04-26T07:37:36.039Z,1.81
2023-04-26T07:38:53.010Z,2.17
2023-04-26T07:40:10.029Z,2.47
2023-04-26T07:41:27.016Z,2.23
2023-04-26T07:42:44.019Z,3.07
2023-04-26T07:44:01.106Z,2.26
2023-04-26T07:45:18.107Z,2.2
2023-04-26T07:46:35.078Z,2.48
2023-04-26T07:47:52.034Z,2.9
2023-04-26T07:49:09.004Z,2.23
2023-04-26T07:50:26.079Z,2.31
2023-04-26T07:51:43.022Z,2.69
2023-04-26T07:53:00.029Z,2.75
2023-04-26T07:54:17.026Z,3.07
2023-04-26T07:55:34.073Z,3.68
2023-04-26T07:56:51.051Z,4.5
2023-04-26T07:58:08.113Z,4.08
2023-04-26T07:59:25.032Z,2.99
2023-04-26T08:00:42.103Z,3.75
2023-04-26T08:01:59.076Z,2.27
2023-04-26T08:03:16.411Z,1.91
2023-04-26T08:04:33.222Z,2.05
2023-04-26T08:05:50.260Z,2.66
2023-04-26T08:07:07.142Z,2.15
2023-04-26T08:08:24.231Z,3.4
2023-04-26T08:09:41.044Z,3.34
2023-04-26T08:10:58.048Z,2.83
2023-04-26T08:12:15.162Z,2.95
2023-04-26T08:13:32.092Z,2.72
2023-04-26T08:14:49.047Z,2.09
2023-04-26T08:16:06.162Z,3.02
2023-04-26T08:17:23.138Z,3.48
2023-04-26T08:18:40.078Z,3.43
2023-04-26T08:19:57.067Z,2.41
2023-04-26T08:21:14.508Z,4.01
2023-04-26T08:22:31.109Z,4.09
2023-04-26T08:23:48.059Z,2.21
2023-04-26T08:25:05.040Z,1.6
2023-04-26T08:26:22.070Z,1.64
2023-04-26T08:27:39.682Z,1.76
2023-04-26T08:28:56.175Z,2.27
2023-04-26T08:30:13.090Z,2.97
2023-04-26T08:31:30.105Z,2.5
2023-04-26T08:32:47.159Z,3.05
2023-04-26T08:34:04.080Z,2.4
2023-04-26T08:35:21.148Z,2.69
2023-04-26T08:36:38.122Z,4.58
2023-04-26T08:37:55.117Z,2.65
2023-04-26T08:39:12.173Z,2.36
2023-04-26T08:40:29.104Z,3.76
2023-04-26T08:41:46.084Z,3.07
2023-04-26T08:43:03.077Z,4.06
2023-04-26T08:44:20.168Z,3.44
2023-04-26T08:45:37.184Z,3.18
2023-04-26T08:46:54.323Z,3.68
2023-04-26T08:48:11.230Z,2.24
2023-04-26T08:49:28.136Z,2.27
2023-04-26T08:50:45.100Z,3.14
2023-04-26T08:52:02.140Z,3.24
2023-04-26T08:53:19.097Z,2.67
2023-04-26T08:54:36.127Z,2.77
2023-04-26T08:55:53.181Z,2.07
2023-04-26T08:57:10.118Z,1.98
2023-04-26T08:58:27.137Z,2.4
2023-04-26T08:59:44.151Z,3.66
2023-04-26T09:01:01.143Z,2.11
2023-04-26T09:02:18.194Z,3.41
2023-04-26T09:03:35.381Z,2.18
2023-04-26T09:04:52.375Z,3.3
2023-04-26T09:06:09.172Z,3.17
2023-04-26T09:07:26.117Z,2.17
2023-04-26T09:08:43.120Z,3.06
2023-04-26T09:10:00.168Z,1.82
2023-04-26T09:11:17.151Z,2.07
2023-04-26T09:12:34.139Z,4.34
2023-04-26T09:13:51.411Z,2.58
2023-04-26T09:15:08.242Z,2.99
2023-04-26T09:16:25.213Z,2.17
2023-04-26T09:17:42.274Z,4.13
2023-04-26T09:18:59.116Z,1.24
2023-04-26T09:20:16.175Z,2.54
2023-04-26T09:21:33.208Z,1.67
2023-04-26T09:22:50.209Z,3.8
2023-04-26T09:24:07.141Z,3.11
2023-04-26T09:25:24.431Z,3.91
2023-04-26T09:26:41.475Z,1.83
2023-04-26T09:27:58.217Z,2.52
2023-04-26T09:29:15.200Z,2.71
2023-04-26T09:30:32.246Z,2.94
2023-04-26T09:31:49.903Z,3.89
2023-04-26T09:33:06.150Z,3.72
2023-04-26T09:34:23.248Z,3.37
2023-04-26T09:35:40.194Z,2.73
2023-04-26T09:36:57.338Z,4.19
2023-04-26T09:38:14.542Z,2.82
2023-04-26T09:39:31.198Z,3.65
2023-04-26T09:40:48.193Z,3.94
2023-04-26T09:42:05.310Z,2.8
2023-04-26T09:43:22.255Z,2.97
2023-04-26T09:44:39.211Z,3.29
2023-04-26T09:45:56.190Z,2.7
2023-04-26T09:47:13.300Z,1.64
2023-04-26T09:48:30.277Z,3
2023-04-26T09:49:47.284Z,3.96
2023-04-26T09:51:04.170Z,2.36
2023-04-26T09:52:21.189Z,1.54
2023-04-26T09:53:38.227Z,3
2023-04-26T09:54:55.297Z,2.57
2023-04-26T09:56:12.246Z,1.4
2023-04-26T09:57:29.194Z,1.99
2023-04-26T09:58:46.184Z,2.35
2023-04-26T10:00:03.196Z,2.01
2023-04-26T10:01:20.432Z,2.36
2023-04-26T10:02:37.232Z,4.21
2023-04-26T10:03:54.423Z,3.6
2023-04-26T10:05:11.334Z,3.31
2023-04-26T10:06:28.177Z,3.13
2023-04-26T10:07:45.215Z,1.95
2023-04-26T10:09:02.197Z,3.8
2023-04-26T10:10:19.257Z,5.29
2023-04-26T10:11:36.184Z,3.89
2023-04-26T10:12:53.212Z,3.91
2023-04-26T10:14:10.201Z,3.29
2023-04-26T10:15:27.289Z,4.01
2023-04-26T10:16:44.273Z,6.25
2023-04-26T10:18:01.264Z,4.8
2023-04-26T10:19:18.241Z,3.52
2023-04-26T10:20:35.275Z,3.33
2023-04-26T10:21:52.227Z,3.07
2023-04-26T10:23:09.232Z,3.47
2023-04-26T10:24:26.464Z,2.65
2023-04-26T10:25:43.359Z,2.12
2023-04-26T10:27:00.217Z,2.97
2023-04-26T10:28:17.244Z,3.52
2023-04-26T10:29:34.216Z,3.37
2023-04-26T10:30:51.337Z,5.91
2023-04-26T10:32:08.422Z,1.64
2023-04-26T10:33:25.245Z,1.69
2023-04-26T10:34:42.225Z,3.55
2023-04-26T10:35:59.276Z,3.56
2023-04-26T10:37:16.371Z,2.37
2023-04-26T10:38:33.285Z,1.74
2023-04-26T10:39:50.223Z,1.53
2023-04-26T10:41:07.290Z,2.15
2023-04-26T10:42:25.386Z,4.53
2023-04-26T10:43:41.250Z,2.72
2023-04-26T10:44:58.262Z,2.29
2023-04-26T10:46:16.143Z,3.13
2023-04-26T10:47:32.486Z,3.29
2023-04-26T10:48:49.246Z,3.14
2023-04-26T10:50:06.460Z,2.04
2023-04-26T10:51:23.339Z,2.07
2023-04-26T10:52:40.584Z,2.41
2023-04-26T10:53:57.516Z,2.63
2023-04-26T10:55:14.351Z,2.13
2023-04-26T10:56:31.295Z,2.18
2023-04-26T10:57:48.333Z,1.76
2023-04-26T10:59:10.635Z,1.75
2023-04-26T11:00:22.315Z,1.99
2023-04-26T11:01:39.286Z,1.33
2023-04-26T11:02:56.418Z,1.43
2023-04-26T11:04:13.405Z,2.44
2023-04-26T11:05:30.272Z,3.18
2023-04-26T11:06:47.281Z,3.87
2023-04-26T11:08:04.288Z,1.87
2023-04-26T11:09:21.307Z,4.5
2023-04-26T11:10:38.280Z,2.57
2023-04-26T11:11:55.313Z,3
2023-04-26T11:13:12.320Z,2.97
2023-04-26T11:14:29.329Z,3
2023-04-26T11:15:46.424Z,3.63
2023-04-26T11:17:03.339Z,2.3
2023-04-26T11:18:20.350Z,6.53
2023-04-26T11:19:37.317Z,4.94
2023-04-26T11:20:54.298Z,3.68
2023-04-26T11:22:11.306Z,2.21
2023-04-26T11:23:28.290Z,3.43
2023-04-26T11:24:45.332Z,2.23
2023-04-26T11:26:02.326Z,3.1
2023-04-26T11:27:19.280Z,2.05
2023-04-26T11:28:36.311Z,2.07
2023-04-26T11:29:53.324Z,2.88
2023-04-26T11:31:10.330Z,2
2023-04-26T11:32:27.361Z,2.54
2023-04-26T11:33:44.362Z,2.6
2023-04-26T11:35:01.359Z,3.71
2023-04-26T11:36:18.315Z,2.84
2023-04-26T11:37:35.302Z,2.44
2023-04-26T11:38:52.491Z,2.9
2023-04-26T11:40:09.356Z,2.87
2023-04-26T11:41:26.329Z,2.37
2023-04-26T11:42:43.397Z,2.37
2023-04-26T11:44:00.429Z,2.71
2023-04-26T11:45:17.353Z,3.72
2023-04-26T11:46:34.414Z,2.47
2023-04-26T11:47:51.395Z,2.35
2023-04-26T11:49:08.424Z,2.53
2023-04-26T11:50:25.410Z,1.66
2023-04-26T11:51:42.468Z,2.61
2023-04-26T11:52:59.323Z,2.46
2023-04-26T11:54:16.336Z,1.99
2023-04-26T11:55:33.375Z,0.95
2023-04-26T11:56:50.347Z,2.07
2023-04-26T11:58:07.374Z,2.9
2023-04-26T11:59:24.427Z,2.9
2023-04-26T12:00:41.466Z,1.56
2023-04-26T12:01:58.419Z,2.01
2023-04-26T12:03:15.595Z,1.96
2023-04-26T12:04:33.098Z,1.95
2023-04-26T12:05:49.349Z,2.58
2023-04-26T12:07:06.573Z,3.34
2023-04-26T12:08:23.359Z,2.71
2023-04-26T12:09:40.403Z,3.19
2023-04-26T12:10:57.422Z,2.22
2023-04-26T12:12:14.581Z,2.05
2023-04-26T12:13:31.413Z,2.75
2023-04-26T12:14:48.414Z,1.75
2023-04-26T12:16:12.358Z,1.65
2023-04-26T12:17:22.575Z,1.92
2023-04-26T12:18:39.395Z,1.11
2023-04-26T12:19:56.483Z,1.98
2023-04-26T12:21:13.400Z,1.56
2023-04-26T12:22:30.443Z,1.65
2023-04-26T12:23:47.508Z,2.65
2023-04-26T12:25:04.495Z,1.95
2023-04-26T12:26:21.464Z,1.71
2023-04-26T12:27:38.422Z,2.21
2023-04-26T12:28:55.438Z,1.67
2023-04-26T12:30:12.436Z,2.88
2023-04-26T12:31:29.411Z,1.6
2023-04-26T12:32:46.573Z,1.26
2023-04-26T12:34:03.836Z,2
2023-04-26T12:35:20.524Z,2.19
2023-04-26T12:36:37.464Z,2.49
2023-04-26T12:37:54.691Z,3.04
2023-04-26T12:39:11.503Z,1.96
2023-04-26T12:40:28.432Z,1.63
2023-04-26T12:41:45.394Z,0.83
2023-04-26T12:43:02.618Z,0.66
2023-04-26T12:44:21.350Z,2.9
2023-04-26T12:45:36.450Z,2.16
2023-04-26T12:46:53.560Z,1.33
2023-04-26T12:48:10.459Z,2.68
2023-04-26T12:49:27.497Z,1.22
2023-04-26T12:50:44.558Z,1.26
2023-04-26T12:52:01.439Z,1.41
2023-04-26T12:53:18.440Z,1.9
2023-04-26T12:54:35.434Z,2.17
2023-04-26T12:55:52.454Z,1.77
2023-04-26T12:57:09.468Z,2.21
2023-04-26T12:58:26.448Z,1.99
2023-04-26T12:59:43.508Z,1.44
2023-04-26T13:01:00.572Z,2.3
2023-04-26T13:02:17.557Z,2.97
2023-04-26T13:03:34.657Z,2.14
2023-04-26T13:04:51.709Z,1.61
2023-04-26T13:06:08.562Z,3.19
2023-04-26T13:07:25.465Z,1.71
2023-04-26T13:08:42.455Z,1
2023-04-26T13:09:59.582Z,1.82
2023-04-26T13:11:16.443Z,2.22
2023-04-26T13:12:33.454Z,2.54
2023-04-26T13:13:50.486Z,2.01
2023-04-26T13:15:07.484Z,3
2023-04-26T13:16:24.553Z,3.34
2023-04-26T13:17:41.525Z,4.06
2023-04-26T13:18:58.485Z,2.19
2023-04-26T13:20:15.455Z,3.1
2023-04-26T13:21:32.520Z,2.31
2023-04-26T13:22:49.504Z,2.35
2023-04-26T13:24:06.562Z,2.07
2023-04-26T13:25:23.546Z,1.99
2023-04-26T13:26:40.501Z,2.59
2023-04-26T13:27:57.523Z,3.13
2023-04-26T13:29:14.690Z,2.27
2023-04-26T13:30:31.704Z,1.42
2023-04-26T13:31:48.553Z,2.01
2023-04-26T13:33:05.503Z,1.88
2023-04-26T13:34:22.781Z,1.87
2023-04-26T13:35:39.503Z,2.87
2023-04-26T13:36:56.622Z,1.95
2023-04-26T13:38:13.951Z,1.88
2023-04-26T13:39:30.550Z,1.92
2023-04-26T13:40:47.622Z,2.13
2023-04-26T13:42:04.780Z,2.64
2023-04-26T13:43:21.655Z,2.15
2023-04-26T13:44:38.569Z,1.54
2023-04-26T13:45:55.584Z,1.91
2023-04-26T13:47:12.531Z,1.91
2023-04-26T13:48:29.504Z,1.64
2023-04-26T13:49:46.501Z,1.41
2023-04-26T13:51:04.952Z,1.52
2023-04-26T13:52:20.565Z,0.93
2023-04-26T13:53:37.548Z,1.19
2023-04-26T13:54:54.553Z,1.86
2023-04-26T13:56:11.521Z,2.89
2023-04-26T13:57:28.532Z,2.1
2023-04-26T13:58:45.531Z,1.49
2023-04-26T14:00:02.612Z,1.26
2023-04-26T14:01:19.573Z,1.06
2023-04-26T14:02:36.721Z,0.89
2023-04-26T14:03:55.702Z,2.06
2023-04-26T14:05:10.643Z,4.24
2023-04-26T14:06:27.623Z,3.22
2023-04-26T14:07:44.552Z,2.78
2023-04-26T14:09:01.550Z,1.71
2023-04-26T14:10:18.573Z,2.68
2023-04-26T14:11:35.578Z,2.61
2023-04-26T14:12:52.562Z,1.47
2023-04-26T14:14:09.533Z,2.74
2023-04-26T14:15:26.600Z,2.43
2023-04-26T14:16:43.643Z,1.77
2023-04-26T14:18:00.603Z,1.59
2023-04-26T14:19:19.192Z,2.02
2023-04-26T14:20:36.538Z,2.23
2023-04-26T14:21:53.608Z,2.61
2023-04-26T14:23:10.583Z,2.08
2023-04-26T14:24:27.564Z,2.64
2023-04-26T14:25:44.633Z,2.43
2023-04-26T14:27:01.540Z,2.13
2023-04-26T14:28:18.729Z,2.03
2023-04-26T14:29:35.579Z,2
2023-04-26T14:30:52.690Z,2.34
2023-04-26T14:32:09.656Z,2.11
2023-04-26T14:33:26.720Z,1.52
2023-04-26T14:34:43.576Z,1.87
2023-04-26T14:36:00.604Z,1.62
2023-04-26T14:37:17.569Z,1.04
2023-04-26T14:38:34.635Z,1.27
2023-04-26T14:39:51.832Z,1.73
2023-04-26T14:41:08.646Z,3.33
2023-04-26T14:42:25.615Z,2.18
2023-04-26T14:43:42.647Z,2.83
2023-04-26T14:44:59.726Z,2.37
2023-04-26T14:46:16.678Z,3.23
2023-04-26T14:47:33.826Z,3.63
2023-04-26T14:48:50.607Z,3.92
2023-04-26T14:50:07.631Z,2.99
2023-04-26T14:51:24.610Z,2.62
2023-04-26T14:52:41.791Z,2.71
2023-04-26T14:53:58.610Z,2.22
2023-04-26T14:55:15.641Z,1.69
2023-04-26T14:56:32.659Z,1.52
2023-04-26T14:57:49.915Z,1.99
2023-04-26T14:59:08.697Z,2.45
2023-04-26T15:00:26.768Z,1.35
2023-04-26T15:01:44.525Z,2.29
2023-04-26T15:03:00.769Z,2
2023-04-26T15:04:20.906Z,2.89
2023-04-26T15:05:37.972Z,1.84
2023-04-26T15:06:54.864Z,1.91
2023-04-26T15:08:12.056Z,1.56
2023-04-26T15:09:30.438Z,1.85
2023-04-26T15:10:45.727Z,2.14
2023-04-26T15:12:06.791Z,1.28
2023-04-26T15:13:23.692Z,2.1
2023-04-26T15:14:40.692Z,2.3
2023-04-26T15:15:57.759Z,1.03
2023-04-26T15:17:14.676Z,2.25
2023-04-26T15:18:31.638Z,3.06
2023-04-26T15:19:48.628Z,2.28
2023-04-26T15:21:05.689Z,2.31
2023-04-26T15:22:22.642Z,1.86
2023-04-26T15:23:39.885Z,1.47
2023-04-26T15:24:56.678Z,1.01
2023-04-26T15:26:13.667Z,0.7
2023-04-26T15:27:30.712Z,0.93
2023-04-26T15:28:47.659Z,1.25
2023-04-26T15:30:04.739Z,1.52
2023-04-26T15:31:21.825Z,1.7
2023-04-26T15:32:38.825Z,1.82
2023-04-26T15:33:56.061Z,1.59
2023-04-26T15:35:12.626Z,1.99
2023-04-26T15:36:31.431Z,2.56
2023-04-26T15:37:47.669Z,1.08
2023-04-26T15:39:04.718Z,1
2023-04-26T15:40:21.683Z,1.56
2023-04-26T15:41:39.078Z,1.82
2023-04-26T15:42:55.686Z,1.67
2023-04-26T15:44:12.668Z,1.01
2023-04-26T15:45:29.673Z,0.97
2023-04-26T15:46:46.720Z,0.99
2023-04-26T15:48:03.812Z,0.69
2023-04-26T15:49:20.727Z,0.81
2023-04-26T15:50:37.675Z,0.98
2023-04-26T15:51:54.757Z,0.65
2023-04-26T15:53:11.941Z,0.84
2023-04-26T15:54:28.759Z,1.17
2023-04-26T15:55:45.714Z,1.94
2023-04-26T15:57:02.680Z,0.89
2023-04-26T15:58:19.924Z,1.19
2023-04-26T15:59:36.691Z,1.11
2023-04-26T16:00:53.815Z,1
2023-04-26T16:02:11.049Z,1.7
2023-04-26T16:03:27.807Z,1.74
2023-04-26T16:04:44.878Z,1.42
2023-04-26T16:06:01.765Z,1.02
2023-04-26T16:07:18.730Z,0.93
2023-04-26T16:08:40.220Z,1.31
2023-04-26T16:09:52.704Z,0.61
2023-04-26T16:11:09.779Z,0.99
2023-04-26T16:12:26.848Z,1.41
2023-04-26T16:13:43.746Z,1.13
2023-04-26T16:15:00.715Z,0.73
2023-04-26T16:16:17.801Z,1.08
2023-04-26T16:17:34.750Z,0.86
2023-04-26T16:18:51.745Z,0.85
2023-04-26T16:20:08.739Z,1.37
2023-04-26T16:21:25.806Z,1.06
2023-04-26T16:22:44.696Z,1.12
2023-04-26T16:24:00.098Z,1.48
2023-04-26T16:25:16.731Z,1.24
2023-04-26T16:26:33.792Z,1.62
2023-04-26T16:27:50.798Z,1.15
2023-04-26T16:29:07.738Z,0.88
2023-04-26T16:30:24.732Z,1.53
2023-04-26T16:31:41.778Z,1.07
2023-04-26T16:32:58.812Z,0.83
2023-04-26T16:34:15.765Z,1.18
2023-04-26T16:35:32.758Z,2.31
2023-04-26T16:36:49.835Z,1.34
2023-04-26T16:38:06.728Z,1.17
2023-04-26T16:39:23.819Z,0.92
2023-04-26T16:40:40.735Z,1.6
2023-04-26T16:41:57.796Z,2.6
2023-04-26T16:43:14.902Z,1.56
2023-04-26T16:44:31.864Z,1.41
2023-04-26T16:45:48.963Z,1.96
2023-04-26T16:47:05.765Z,2.11
2023-04-26T16:48:23.019Z,1.86
2023-04-26T16:49:39.821Z,1.64
2023-04-26T16:50:56.876Z,1.38
2023-04-26T16:52:13.952Z,1.18
2023-04-26T16:53:30.769Z,0.9
2023-04-26T16:54:48.001Z,0.64
2023-04-26T16:56:04.996Z,0.44
2023-04-26T16:57:21.951Z,0.67
2023-04-26T16:58:39.075Z,0.57
2023-04-26T16:59:56.004Z,1.11
2023-04-26T17:01:12.855Z,0.77
2023-04-26T17:02:30.036Z,1.04
2023-04-26T17:03:46.991Z,1.05
2023-04-26T17:05:03.966Z,0.87
2023-04-26T17:06:20.917Z,1.67
2023-04-26T17:07:37.932Z,2.5
2023-04-26T17:08:54.801Z,1.47
2023-04-26T17:10:12.094Z,1.07